Kernersville, NC (27284)

6:24 AM EST on December 04, 2016 (GMT -0500)
| | Change Station

Elev -9999 ft 0.00 °N, 0.00 °E | Updated

Rain
Rain
40 °F
Feels Like 40 °F
N
3
Wind Variable Wind from NE
Gusts mph

Today
High -- | Low -- °F
--% Chance of Precip.
Yesterday
High -- | Low -- °F
Precip. -- in
Pressure 30.27 in
Visibility 10.0 miles
Clouds Mostly Cloudy 6500 ft
Overcast 8000 ft
Dew Point 33 °F
Humidity 76%
Rainfall --
Snow Depth Not available.
7:15 AM 5:05 PM
Waxing Crescent, 22% visible
METAR KINT 041054Z AUTO 00000KT 10SM BKN065 OVC080 04/M03 A3027 RMK AO2 SLP251 T00441033
Pressure 30.27 in
Visibility 10.0 miles
Clouds Mostly Cloudy 6500 ft
Overcast 8000 ft
Dew Point 33 °F
Humidity 76%
Rainfall --
Snow Depth Not available.
7:15 AM 5:05 PM
Waxing Crescent, 22% visible
METAR KINT 041054Z AUTO 00000KT 10SM BKN065 OVC080 04/M03 A3027 RMK AO2 SLP251 T00441033

10-Day Weather Forecast

Almanac

Astronomy

Dec. 04, 2016 Rise Set
Actual Time
Civil Twilight
Nautical Twilight
Astronomical Twilight
Moon
Length of Visible Light
Length of Day
Tomorrow will be .
, % of the Moon is Illuminated

Today's Extremes

State Highs State Lows

Community

WunderPhotos

Upload Photos

1,955,593 photos uploaded!

WunderBlog® & News

Nearby

Air Quality

  Air Quality AQ Index Pollutant
Not available.

Snow Depth

Station Depth Elevation

Earthquake Activity

City Distance Mag. Time & Date
Minimum magnitude displayed is 2.5.

Coastal Water Temperatures

Place Temperature

Stations

Nearby Weather Stations

Station Location Temp. Windchill Dew Point Humidity Wind Precip. Elev Updated Type
                   

Watches & Warnings

There are currently no watches in effect.